Time;durP1;ratioP1;P1;durP2;ratioP2;P2;SDS_P1;SDS_P2;PMS_P1;PMS_P2;Temp;Humidity;BMP_temperature;BMP_pressure;BME280_temperature;BME280_humidity;BME280_pressure;Samples;Min_cycle;Max_cycle;Signal;HPM_P1;HPM_P2
2022/10/18 00:00:25;;;;;;;;;;;26.90;99.90;;;;;;5043186;23;20148;-56
2022/10/18 00:02:51;;;;;;;;;;;27.00;99.90;;;;;;5031173;28;19904;-56
2022/10/18 00:05:17;;;;;;;;;;;27.10;99.90;;;;;;5030978;28;19904;-57
2022/10/18 00:07:42;;;;;;;;;;;27.20;99.90;;;;;;5029919;28;19956;-55
2022/10/18 00:10:08;;;;;;;;;;;27.40;99.90;;;;;;5026796;28;20439;-56
2022/10/18 00:12:34;;;;;;;;;;;27.40;99.90;;;;;;5030945;28;19911;-57
2022/10/18 00:15:00;;;;;;;;;;;27.50;99.90;;;;;;5032306;28;20268;-57
2022/10/18 00:17:26;;;;;;;;;;;27.50;99.90;;;;;;5031963;28;19905;-57
2022/10/18 00:19:52;;;;;;;;;;;27.60;99.90;;;;;;5031831;28;19941;-56
2022/10/18 00:22:17;;;;;;;;;;;27.60;99.90;;;;;;5031744;28;20197;-58
2022/10/18 00:24:43;;;;;;;;;;;27.70;99.90;;;;;;5032404;28;19912;-57
2022/10/18 00:27:08;;;;;;;;;;;27.70;99.90;;;;;;5032801;28;20403;-56
2022/10/18 00:29:34;;;;;;;;;;;27.80;99.90;;;;;;5032681;28;19905;-56
2022/10/18 00:31:59;;;;;;;;;;;27.80;99.90;;;;;;5032551;28;19906;-57
2022/10/18 00:34:25;;;;;;;;;;;27.80;99.90;;;;;;5032542;28;20332;-57
2022/10/18 00:36:51;;;;;;;;;;;27.90;99.90;;;;;;5032383;28;19909;-56
2022/10/18 00:39:18;;;;;;;;;;;27.90;99.90;;;;;;5032238;28;19971;-56
2022/10/18 00:41:44;;;;;;;;;;;27.90;99.90;;;;;;5031121;28;19905;-56
2022/10/18 00:44:09;;;;;;;;;;;27.90;99.90;;;;;;5032454;28;19911;-56
2022/10/18 00:46:36;;;;;;;;;;;27.90;99.90;;;;;;5032345;28;19905;-56
2022/10/18 00:49:12;;;;;;;;;;;28.00;99.90;;;;;;5032194;28;19905;-56
2022/10/18 00:51:43;;;;;;;;;;;28.00;99.90;;;;;;5030998;28;19905;-57
2022/10/18 00:54:10;;;;;;;;;;;28.00;99.90;;;;;;5032351;28;19905;-56
2022/10/18 00:56:35;;;;;;;;;;;28.00;99.90;;;;;;5032129;28;19905;-57
2022/10/18 00:59:02;;;;;;;;;;;28.00;99.90;;;;;;5030760;28;19982;-56
2022/10/18 01:01:27;;;;;;;;;;;28.00;99.90;;;;;;5032361;28;19921;-56
2022/10/18 01:03:53;;;;;;;;;;;28.00;99.90;;;;;;5032118;28;19909;-56
2022/10/18 01:06:19;;;;;;;;;;;28.00;99.90;;;;;;5031884;28;19904;-56
2022/10/18 01:08:44;;;;;;;;;;;28.00;99.90;;;;;;5031845;28;19905;-56
2022/10/18 01:11:33;;;;;;;;;;;28.00;99.90;;;;;;5032067;28;19905;-57
2022/10/18 01:14:17;;;;;;;;;;;28.00;99.90;;;;;;5023764;28;19911;-57
2022/10/18 01:16:42;;;;;;;;;;;28.00;99.90;;;;;;5032171;28;19913;-57
2022/10/18 01:19:11;;;;;;;;;;;28.00;99.90;;;;;;5031424;28;20365;-56
2022/10/18 01:21:36;;;;;;;;;;;28.00;99.90;;;;;;5031774;28;20284;-56
2022/10/18 01:24:05;;;;;;;;;;;28.00;99.90;;;;;;5031801;28;19905;-57
2022/10/18 01:26:39;;;;;;;;;;;28.00;99.90;;;;;;5031869;28;19905;-57
2022/10/18 01:29:23;;;;;;;;;;;28.00;99.90;;;;;;5031696;28;19909;-59
2022/10/18 01:31:50;;;;;;;;;;;28.00;99.90;;;;;;5031684;28;19948;-58
2022/10/18 01:34:17;;;;;;;;;;;28.00;99.90;;;;;;5031700;28;19905;-57
2022/10/18 01:36:47;;;;;;;;;;;28.00;99.90;;;;;;5032028;28;19975;-58
2022/10/18 01:39:22;;;;;;;;;;;28.00;99.90;;;;;;5031968;28;19919;-58
2022/10/18 01:41:48;;;;;;;;;;;28.00;99.90;;;;;;5031632;28;19913;-59
2022/10/18 01:44:16;;;;;;;;;;;27.90;99.90;;;;;;5031626;28;19913;-59
2022/10/18 01:46:43;;;;;;;;;;;27.90;99.90;;;;;;5031821;28;19988;-57
2022/10/18 01:49:08;;;;;;;;;;;28.00;99.90;;;;;;5031556;28;20000;-57
2022/10/18 01:51:34;;;;;;;;;;;27.90;99.90;;;;;;5031501;28;19992;-56
2022/10/18 01:54:00;;;;;;;;;;;27.90;99.90;;;;;;5031588;28;20000;-57
2022/10/18 01:56:44;;;;;;;;;;;27.90;99.90;;;;;;5031414;28;19909;-57
2022/10/18 02:01:42;;;;;;;;;;;27.90;99.90;;;;;;5030003;28;19928;-50
2022/10/18 02:04:19;;;;;;;;;;;27.90;99.90;;;;;;5031329;28;19908;-51
2022/10/18 02:06:50;;;;;;;;;;;27.90;99.90;;;;;;5031501;28;19988;-49
2022/10/18 02:09:18;;;;;;;;;;;27.90;99.90;;;;;;5031517;28;19905;-50
2022/10/18 02:11:45;;;;;;;;;;;27.90;99.90;;;;;;5031633;28;19908;-50
2022/10/18 02:14:11;;;;;;;;;;;27.90;99.90;;;;;;5031113;28;19924;-50
2022/10/18 02:16:42;;;;;;;;;;;27.90;99.90;;;;;;5031024;28;19917;-51
2022/10/18 02:19:16;;;;;;;;;;;27.90;99.90;;;;;;5030855;28;20387;-50
2022/10/18 02:21:44;;;;;;;;;;;27.90;99.90;;;;;;5031224;28;19909;-50
2022/10/18 02:24:11;;;;;;;;;;;27.90;99.90;;;;;;5031055;28;19905;-50
2022/10/18 02:26:37;;;;;;;;;;;27.90;99.90;;;;;;5031095;28;19912;-50
2022/10/18 02:29:02;;;;;;;;;;;27.80;99.90;;;;;;5031119;28;19906;-50
2022/10/18 02:31:46;;;;;;;;;;;27.80;99.90;;;;;;5032544;28;19905;-50
2022/10/18 02:34:22;;;;;;;;;;;27.80;99.90;;;;;;5034662;28;20387;-50
2022/10/18 02:36:51;;;;;;;;;;;27.80;99.90;;;;;;5034754;28;19958;-50
2022/10/18 02:39:18;;;;;;;;;;;27.80;99.90;;;;;;5034828;28;19912;-50
2022/10/18 02:41:43;;;;;;;;;;;27.80;99.90;;;;;;5034763;28;20042;-50
2022/10/18 02:44:10;;;;;;;;;;;27.80;99.90;;;;;;5034442;28;20422;-50
2022/10/18 02:46:35;;;;;;;;;;;27.80;99.90;;;;;;5034548;28;20299;-50
2022/10/18 02:49:01;;;;;;;;;;;27.80;99.90;;;;;;5034469;28;19905;-50
2022/10/18 02:51:27;;;;;;;;;;;27.80;99.90;;;;;;5034378;28;19944;-50
2022/10/18 02:53:52;;;;;;;;;;;27.80;99.90;;;;;;5034462;28;20268;-50
2022/10/18 02:56:18;;;;;;;;;;;27.70;99.90;;;;;;5034486;28;19905;-50
2022/10/18 02:58:43;;;;;;;;;;;27.70;99.90;;;;;;5034159;28;20319;-50
2022/10/18 03:01:09;;;;;;;;;;;27.70;99.90;;;;;;5046376;22;19925;-58
2022/10/18 03:03:34;;;;;;;;;;;27.70;99.90;;;;;;5034210;28;19909;-58
2022/10/18 03:06:00;;;;;;;;;;;27.70;99.90;;;;;;5034223;28;19912;-58
2022/10/18 03:08:25;;;;;;;;;;;27.70;99.90;;;;;;5032936;28;19909;-58
2022/10/18 03:10:51;;;;;;;;;;;27.70;99.90;;;;;;5034132;28;19959;-58
2022/10/18 03:13:17;;;;;;;;;;;27.70;99.90;;;;;;5034316;28;19916;-56
2022/10/18 03:15:42;;;;;;;;;;;27.70;99.90;;;;;;5034109;28;19955;-58
2022/10/18 03:18:08;;;;;;;;;;;27.70;99.90;;;;;;5033955;28;19909;-59
2022/10/18 03:20:34;;;;;;;;;;;27.70;99.90;;;;;;5033827;28;19913;-57
2022/10/18 03:23:00;;;;;;;;;;;27.70;99.90;;;;;;5033945;28;20003;-57
2022/10/18 03:25:25;;;;;;;;;;;27.70;99.90;;;;;;5033947;28;20361;-58
2022/10/18 03:27:51;;;;;;;;;;;27.70;99.90;;;;;;5033996;28;19940;-58
2022/10/18 03:30:16;;;;;;;;;;;27.70;99.90;;;;;;5032811;28;20360;-59
2022/10/18 03:32:42;;;;;;;;;;;27.70;99.90;;;;;;5033831;28;19995;-59
2022/10/18 03:35:08;;;;;;;;;;;27.70;99.90;;;;;;5033857;28;19905;-57
2022/10/18 03:37:34;;;;;;;;;;;27.60;99.90;;;;;;5033601;28;19905;-57
2022/10/18 03:39:59;;;;;;;;;;;27.60;99.90;;;;;;5033534;28;19916;-57
2022/10/18 03:42:25;;;;;;;;;;;27.60;99.90;;;;;;5033422;28;19952;-57
2022/10/18 03:44:51;;;;;;;;;;;27.60;99.90;;;;;;5033531;28;19909;-57
2022/10/18 03:47:16;;;;;;;;;;;27.60;99.90;;;;;;5031971;28;19995;-57
2022/10/18 03:49:42;;;;;;;;;;;27.60;99.90;;;;;;5033365;28;20276;-57
2022/10/18 03:52:07;;;;;;;;;;;27.60;99.90;;;;;;5033310;28;19963;-57
2022/10/18 03:54:33;;;;;;;;;;;27.60;99.90;;;;;;5033316;28;20436;-56
2022/10/18 03:56:58;;;;;;;;;;;27.60;99.90;;;;;;5033245;28;19951;-56
2022/10/18 03:59:24;;;;;;;;;;;27.50;99.90;;;;;;5045380;22;19916;-54
2022/10/18 04:01:50;;;;;;;;;;;27.50;99.90;;;;;;5033317;28;20352;-55
2022/10/18 04:04:15;;;;;;;;;;;27.60;99.90;;;;;;5033169;28;20364;-55
2022/10/18 04:06:41;;;;;;;;;;;27.60;99.90;;;;;;5031843;28;19916;-56
2022/10/18 04:09:07;;;;;;;;;;;27.50;99.90;;;;;;5033026;28;19944;-58
2022/10/18 04:11:32;;;;;;;;;;;27.50;99.90;;;;;;5032971;28;19905;-57
2022/10/18 04:13:58;;;;;;;;;;;27.50;99.90;;;;;;5033124;28;20028;-57
2022/10/18 04:16:23;;;;;;;;;;;27.50;99.90;;;;;;5032879;28;19916;-56
2022/10/18 04:18:49;;;;;;;;;;;27.50;99.90;;;;;;5032942;28;19912;-57
2022/10/18 04:21:15;;;;;;;;;;;27.50;99.90;;;;;;5032958;28;19909;-56
2022/10/18 04:23:40;;;;;;;;;;;27.50;99.90;;;;;;5032688;28;20357;-57
2022/10/18 04:26:06;;;;;;;;;;;27.50;99.90;;;;;;5032706;28;20292;-57
2022/10/18 04:28:33;;;;;;;;;;;27.50;99.90;;;;;;5032733;28;19956;-57
2022/10/18 04:30:58;;;;;;;;;;;27.50;99.90;;;;;;5032534;28;20360;-57
2022/10/18 04:33:24;;;;;;;;;;;27.50;99.90;;;;;;5032679;28;19909;-57
2022/10/18 04:35:50;;;;;;;;;;;27.40;99.90;;;;;;5032590;28;20398;-57
2022/10/18 04:38:16;;;;;;;;;;;27.40;99.90;;;;;;5032397;28;20001;-57
2022/10/18 04:40:41;;;;;;;;;;;27.40;99.90;;;;;;5032346;28;20003;-57
2022/10/18 04:43:07;;;;;;;;;;;27.40;99.90;;;;;;5032253;28;19912;-57
2022/10/18 04:45:33;;;;;;;;;;;27.40;99.90;;;;;;5032224;28;20311;-56
2022/10/18 04:47:58;;;;;;;;;;;27.40;99.90;;;;;;5032224;28;19909;-56
2022/10/18 04:50:24;;;;;;;;;;;27.40;99.90;;;;;;5031040;28;19905;-56
2022/10/18 04:52:50;;;;;;;;;;;27.40;99.90;;;;;;5032181;28;19909;-56
2022/10/18 04:55:15;;;;;;;;;;;27.40;99.90;;;;;;5031507;28;19905;-56
2022/10/18 04:57:41;;;;;;;;;;;27.40;99.90;;;;;;5031940;28;19971;-58
2022/10/18 05:00:07;;;;;;;;;;;27.30;99.90;;;;;;5031942;28;19917;-58
2022/10/18 05:02:32;;;;;;;;;;;27.30;99.90;;;;;;5031844;28;19905;-57
2022/10/18 05:04:58;;;;;;;;;;;27.30;99.90;;;;;;5031989;28;19915;-57
2022/10/18 05:07:24;;;;;;;;;;;27.30;99.90;;;;;;5032080;28;20276;-57
2022/10/18 05:09:49;;;;;;;;;;;27.30;99.90;;;;;;5031805;28;20333;-56
2022/10/18 05:12:15;;;;;;;;;;;27.30;99.90;;;;;;5031668;28;19931;-56
2022/10/18 05:14:40;;;;;;;;;;;27.30;99.90;;;;;;5046916;28;19908;-56
2022/10/18 05:17:06;;;;;;;;;;;27.30;99.90;;;;;;5031576;28;19960;-55
2022/10/18 05:19:32;;;;;;;;;;;27.30;99.90;;;;;;5031831;28;19920;-55
2022/10/18 05:21:57;;;;;;;;;;;27.30;99.90;;;;;;5031834;28;19905;-56
2022/10/18 05:24:23;;;;;;;;;;;27.20;99.90;;;;;;5031693;28;19999;-55
2022/10/18 05:26:48;;;;;;;;;;;27.30;99.90;;;;;;5031569;28;19913;-56
2022/10/18 05:29:14;;;;;;;;;;;27.20;99.90;;;;;;5031618;28;19905;-56
2022/10/18 05:31:39;;;;;;;;;;;27.20;99.90;;;;;;5031307;28;19905;-56
2022/10/18 05:34:05;;;;;;;;;;;27.20;99.90;;;;;;5031465;28;19912;-55
2022/10/18 05:36:31;;;;;;;;;;;27.20;99.90;;;;;;5031399;28;19951;-56
2022/10/18 05:38:56;;;;;;;;;;;27.20;99.90;;;;;;5031591;28;20364;-56
2022/10/18 05:41:22;;;;;;;;;;;27.20;99.90;;;;;;5031419;28;19913;-56
2022/10/18 05:43:48;;;;;;;;;;;27.20;99.90;;;;;;5031299;28;19913;-55
2022/10/18 05:46:13;;;;;;;;;;;27.20;99.90;;;;;;5030046;28;20012;-56
2022/10/18 05:48:39;;;;;;;;;;;27.20;99.90;;;;;;5031403;28;19905;-56
2022/10/18 05:51:04;;;;;;;;;;;27.20;99.90;;;;;;5031308;28;20349;-56
2022/10/18 05:53:30;;;;;;;;;;;27.20;99.90;;;;;;5031402;28;20356;-56
2022/10/18 05:55:59;;;;;;;;;;;27.10;99.90;;;;;;5031296;28;19940;-57
2022/10/18 05:58:24;;;;;;;;;;;27.10;99.90;;;;;;5031536;28;19999;-57
2022/10/18 06:00:50;;;;;;;;;;;27.10;99.90;;;;;;5030990;28;20012;-57
2022/10/18 06:03:16;;;;;;;;;;;27.10;99.90;;;;;;5031060;28;19912;-57
2022/10/18 06:05:42;;;;;;;;;;;27.10;99.90;;;;;;5031533;28;19905;-58
2022/10/18 06:08:07;;;;;;;;;;;27.10;99.90;;;;;;5035110;28;19912;-57
2022/10/18 06:10:33;;;;;;;;;;;27.10;99.90;;;;;;5035054;28;19909;-57
2022/10/18 06:12:58;;;;;;;;;;;27.00;99.90;;;;;;5050649;28;19909;-57
2022/10/18 06:15:24;;;;;;;;;;;27.00;99.90;;;;;;5034069;28;19912;-57
2022/10/18 06:17:50;;;;;;;;;;;27.00;99.90;;;;;;5034972;28;19913;-56
2022/10/18 06:20:16;;;;;;;;;;;27.00;99.90;;;;;;5034742;28;19917;-56
2022/10/18 06:22:41;;;;;;;;;;;27.00;99.90;;;;;;5034861;28;20349;-57
2022/10/18 06:25:07;;;;;;;;;;;27.00;99.90;;;;;;5034737;28;19909;-57
2022/10/18 06:27:33;;;;;;;;;;;27.00;99.90;;;;;;5034708;28;19901;-57
2022/10/18 06:29:58;;;;;;;;;;;27.00;99.90;;;;;;5034796;28;20284;-56
2022/10/18 06:32:24;;;;;;;;;;;27.00;99.90;;;;;;5034522;28;19904;-57
2022/10/18 06:34:50;;;;;;;;;;;27.00;99.90;;;;;;5049839;28;20824;-57
2022/10/18 06:37:15;;;;;;;;;;;27.00;99.90;;;;;;5034474;28;19913;-58
2022/10/18 06:39:41;;;;;;;;;;;27.00;99.90;;;;;;5034173;28;19913;-57
2022/10/18 06:42:06;;;;;;;;;;;27.00;99.90;;;;;;5034615;28;19988;-56
2022/10/18 06:44:32;;;;;;;;;;;27.00;99.90;;;;;;5033073;28;20280;-56
2022/10/18 06:46:58;;;;;;;;;;;26.90;99.90;;;;;;5034331;28;19916;-56
2022/10/18 06:49:23;;;;;;;;;;;27.00;99.90;;;;;;5034271;28;20000;-57
2022/10/18 06:51:49;;;;;;;;;;;26.90;99.90;;;;;;5034327;28;19948;-56
2022/10/18 06:54:15;;;;;;;;;;;26.90;99.90;;;;;;5034478;28;19905;-56
2022/10/18 06:56:40;;;;;;;;;;;27.00;99.90;;;;;;5034039;28;19905;-56
2022/10/18 06:59:06;;;;;;;;;;;26.90;99.90;;;;;;5033994;28;19905;-56
2022/10/18 07:01:32;;;;;;;;;;;26.90;99.90;;;;;;5034014;28;19924;-57
2022/10/18 07:03:57;;;;;;;;;;;26.90;99.90;;;;;;5032821;28;20043;-56
2022/10/18 07:06:23;;;;;;;;;;;26.90;99.90;;;;;;5034122;28;19905;-56
2022/10/18 07:08:49;;;;;;;;;;;26.90;99.90;;;;;;5033886;28;19931;-56
2022/10/18 07:11:19;;;;;;;;;;;26.90;99.90;;;;;;5033820;28;20373;-56
2022/10/18 07:13:45;;;;;;;;;;;26.90;99.90;;;;;;5033754;28;20297;-56
2022/10/18 07:16:12;;;;;;;;;;;26.90;99.90;;;;;;5033522;28;19905;-56
2022/10/18 07:18:39;;;;;;;;;;;26.90;99.90;;;;;;5033360;28;20291;-56
2022/10/18 07:21:09;;;;;;;;;;;26.90;99.90;;;;;;5033470;28;19967;-57
2022/10/18 07:23:36;;;;;;;;;;;26.90;99.90;;;;;;5033319;28;19913;-57
2022/10/18 07:26:03;;;;;;;;;;;26.90;99.90;;;;;;5033879;28;19912;-57
2022/10/18 07:28:29;;;;;;;;;;;26.90;99.90;;;;;;5033633;28;19928;-57
2022/10/18 07:30:54;;;;;;;;;;;27.00;99.90;;;;;;5033492;28;19905;-57
2022/10/18 07:33:20;;;;;;;;;;;27.00;99.90;;;;;;5033491;28;20327;-57
2022/10/18 07:35:46;;;;;;;;;;;27.00;99.90;;;;;;5033279;28;19905;-57
2022/10/18 07:38:12;;;;;;;;;;;27.00;99.90;;;;;;5033221;28;20062;-57
2022/10/18 07:40:38;;;;;;;;;;;27.00;99.90;;;;;;5033258;28;20011;-57
2022/10/18 07:43:03;;;;;;;;;;;27.00;99.90;;;;;;5033563;28;19909;-57
2022/10/18 07:45:29;;;;;;;;;;;27.00;99.90;;;;;;5033339;28;20348;-57
2022/10/18 07:47:55;;;;;;;;;;;27.00;99.90;;;;;;5033301;28;20261;-57
2022/10/18 07:50:21;;;;;;;;;;;27.00;99.90;;;;;;5032777;28;19959;-57
2022/10/18 07:52:47;;;;;;;;;;;27.00;99.90;;;;;;5033135;28;19963;-57
2022/10/18 07:55:12;;;;;;;;;;;27.10;99.90;;;;;;5032968;28;20375;-57
2022/10/18 07:57:38;;;;;;;;;;;27.10;99.90;;;;;;5033095;28;20003;-57
2022/10/18 08:00:04;;;;;;;;;;;27.10;99.90;;;;;;5033056;28;19917;-56
2022/10/18 08:02:29;;;;;;;;;;;27.10;99.90;;;;;;5032884;28;20327;-56
2022/10/18 08:04:55;;;;;;;;;;;27.10;99.90;;;;;;5032947;28;19909;-56
2022/10/18 08:07:20;;;;;;;;;;;27.20;99.90;;;;;;5032905;28;19905;-56
2022/10/18 08:09:46;;;;;;;;;;;27.20;99.90;;;;;;5032685;28;20004;-56
2022/10/18 08:12:14;;;;;;;;;;;27.20;99.90;;;;;;5032744;28;19944;-56
2022/10/18 08:14:39;;;;;;;;;;;27.20;99.90;;;;;;5032590;28;19994;-57
2022/10/18 08:17:05;;;;;;;;;;;27.20;99.90;;;;;;5032718;28;19953;-56
2022/10/18 08:19:31;;;;;;;;;;;27.20;99.90;;;;;;5031146;28;19956;-57
2022/10/18 08:21:56;;;;;;;;;;;27.20;99.90;;;;;;5032391;28;19990;-56
2022/10/18 08:24:22;;;;;;;;;;;27.30;99.90;;;;;;5032446;28;20305;-56
2022/10/18 08:26:48;;;;;;;;;;;27.30;99.90;;;;;;5032303;28;20295;-56
2022/10/18 08:29:14;;;;;;;;;;;27.30;99.90;;;;;;5031355;28;19905;-56
2022/10/18 08:31:39;;;;;;;;;;;27.30;99.90;;;;;;5032184;28;19909;-56
2022/10/18 08:34:05;;;;;;;;;;;27.30;99.90;;;;;;5032556;28;20429;-56
2022/10/18 08:36:30;;;;;;;;;;;27.30;99.90;;;;;;5032181;28;19909;-56
2022/10/18 08:38:56;;;;;;;;;;;27.40;99.90;;;;;;5032184;28;19963;-56
2022/10/18 08:41:27;;;;;;;;;;;27.40;99.90;;;;;;5032193;28;19905;-56
2022/10/18 08:44:04;;;;;;;;;;;27.40;99.90;;;;;;5032020;28;19909;-56
2022/10/18 08:46:31;;;;;;;;;;;27.40;99.90;;;;;;5032075;28;19999;-56
2022/10/18 08:48:58;;;;;;;;;;;27.40;99.90;;;;;;5031952;28;19915;-56
2022/10/18 08:51:43;;;;;;;;;;;27.40;99.90;;;;;;5032040;28;20268;-56
2022/10/18 08:54:08;;;;;;;;;;;27.40;99.90;;;;;;5031830;28;19908;-56
2022/10/18 08:56:34;;;;;;;;;;;27.50;99.90;;;;;;5032000;28;19936;-56
2022/10/18 08:59:01;;;;;;;;;;;27.50;99.90;;;;;;5031617;28;19905;-56
2022/10/18 09:01:50;;;;;;;;;;;27.50;99.90;;;;;;5031379;28;19971;-56
2022/10/18 09:04:35;;;;;;;;;;;27.50;99.90;;;;;;5030280;28;20423;-56
2022/10/18 09:07:03;;;;;;;;;;;27.50;99.90;;;;;;5031562;28;19905;-56
2022/10/18 09:09:38;;;;;;;;;;;27.50;99.90;;;;;;5031578;28;19935;-56
2022/10/18 09:12:12;;;;;;;;;;;27.60;99.90;;;;;;5031614;28;19905;-56
2022/10/18 09:14:47;;;;;;;;;;;27.60;99.90;;;;;;5031654;28;19920;-56
2022/10/18 09:17:15;;;;;;;;;;;27.60;99.90;;;;;;5031376;28;20348;-56
2022/10/18 09:19:44;;;;;;;;;;;27.60;99.90;;;;;;5046605;28;19924;-56
2022/10/18 09:22:15;;;;;;;;;;;27.70;99.90;;;;;;5031419;28;19916;-56
2022/10/18 09:24:45;;;;;;;;;;;27.70;99.90;;;;;;5031389;28;19905;-56
2022/10/18 09:27:15;;;;;;;;;;;27.70;99.90;;;;;;5031250;28;19909;-57
2022/10/18 09:30:10;;;;;;;;;;;27.70;99.90;;;;;;5031388;28;19912;-56
2022/10/18 09:32:36;;;;;;;;;;;27.70;99.90;;;;;;5026238;28;20418;-56
2022/10/18 09:35:10;;;;;;;;;;;27.80;99.90;;;;;;5031403;28;19901;-56
2022/10/18 09:37:36;;;;;;;;;;;27.80;99.90;;;;;;5031307;28;19936;-56
2022/10/18 09:40:05;;;;;;;;;;;27.80;99.90;;;;;;5031032;28;20246;-56
2022/10/18 09:42:36;;;;;;;;;;;27.80;99.90;;;;;;5031139;28;20004;-56
2022/10/18 09:45:37;;;;;;;;;;;27.90;99.90;;;;;;5024523;28;19975;-56
2022/10/18 09:48:11;;;;;;;;;;;27.90;99.90;;;;;;4988415;28;19914;-56
2022/10/18 09:50:42;;;;;;;;;;;27.90;99.90;;;;;;5008454;28;19905;-55
2022/10/18 09:53:11;;;;;;;;;;;27.90;99.90;;;;;;5021321;28;19909;-56
2022/10/18 09:55:49;;;;;;;;;;;27.90;99.90;;;;;;5031237;28;20276;-56
2022/10/18 09:58:16;;;;;;;;;;;27.90;99.90;;;;;;5030625;28;20012;-57
2022/10/18 10:00:47;;;;;;;;;;;27.90;99.90;;;;;;5025513;28;19924;-56
2022/10/18 10:03:13;;;;;;;;;;;27.90;99.90;;;;;;5024777;28;19914;-56
2022/10/18 10:05:40;;;;;;;;;;;27.90;99.90;;;;;;5019779;28;19914;-55
2022/10/18 10:08:05;;;;;;;;;;;27.90;99.90;;;;;;5022165;28;19909;-55
2022/10/18 10:10:31;;;;;;;;;;;27.90;99.90;;;;;;5018598;28;19909;-53
2022/10/18 10:13:14;;;;;;;;;;;27.90;99.90;;;;;;5028394;28;20372;-53
2022/10/18 10:15:44;;;;;;;;;;;27.90;99.90;;;;;;5025793;28;19975;-55
2022/10/18 10:18:20;;;;;;;;;;;27.90;99.90;;;;;;5027418;28;19905;-55
2022/10/18 10:20:47;;;;;;;;;;;27.90;99.90;;;;;;5025446;28;20314;-54
2022/10/18 10:23:15;;;;;;;;;;;28.00;99.90;;;;;;5028822;28;19905;-54
2022/10/18 10:25:41;;;;;;;;;;;28.00;99.90;;;;;;5023774;28;19908;-55
2022/10/18 10:28:12;;;;;;;;;;;28.00;99.90;;;;;;5042966;28;20276;-54
2022/10/18 10:30:38;;;;;;;;;;;28.00;99.90;;;;;;5028877;28;20014;-53
2022/10/18 10:33:05;;;;;;;;;;;28.00;99.90;;;;;;5028184;28;19949;-54
2022/10/18 10:35:32;;;;;;;;;;;28.00;99.90;;;;;;5028718;28;19921;-55
2022/10/18 10:37:58;;;;;;;;;;;28.00;99.90;;;;;;5026216;28;19909;-55
2022/10/18 10:40:25;;;;;;;;;;;28.10;99.90;;;;;;5023504;28;19913;-54
2022/10/18 10:42:50;;;;;;;;;;;28.20;99.90;;;;;;5019886;28;19920;-53
2022/10/18 10:45:16;;;;;;;;;;;28.20;99.90;;;;;;5022439;28;20276;-55
2022/10/18 10:47:41;;;;;;;;;;;28.20;99.90;;;;;;5023912;28;19913;-55
2022/10/18 10:50:10;;;;;;;;;;;28.30;99.90;;;;;;5019807;28;19905;-56
2022/10/18 10:52:36;;;;;;;;;;;28.30;99.90;;;;;;5013728;28;20396;-55
2022/10/18 10:55:02;;;;;;;;;;;28.40;99.90;;;;;;5029988;28;20340;-55
2022/10/18 10:57:28;;;;;;;;;;;28.40;99.90;;;;;;5032801;28;19913;-55
2022/10/18 10:59:54;;;;;;;;;;;28.40;99.90;;;;;;5032103;28;20284;-55
2022/10/18 11:02:22;;;;;;;;;;;28.40;99.90;;;;;;5031936;28;19959;-56
2022/10/18 11:04:51;;;;;;;;;;;28.50;99.90;;;;;;5031924;28;19901;-55
2022/10/18 11:07:20;;;;;;;;;;;28.50;99.90;;;;;;5031883;28;20364;-56
2022/10/18 11:09:52;;;;;;;;;;;28.50;99.90;;;;;;5031668;28;19924;-55
2022/10/18 11:12:43;;;;;;;;;;;28.40;99.90;;;;;;5031903;28;20288;-55
2022/10/18 11:15:10;;;;;;;;;;;28.50;99.90;;;;;;5030224;28;20004;-56
2022/10/18 11:17:40;;;;;;;;;;;28.40;99.90;;;;;;5033700;28;19991;-57
2022/10/18 11:20:06;;;;;;;;;;;28.40;99.90;;;;;;5033533;28;20352;-56
2022/10/18 11:22:34;;;;;;;;;;;28.50;99.90;;;;;;5032222;28;19951;-56
2022/10/18 11:25:01;;;;;;;;;;;28.50;99.90;;;;;;5033438;28;19905;-56
2022/10/18 11:27:29;;;;;;;;;;;28.40;99.90;;;;;;5033492;28;19912;-56
2022/10/18 11:30:13;;;;;;;;;;;28.50;99.90;;;;;;5033371;28;20280;-55
2022/10/18 11:32:46;;;;;;;;;;;28.50;99.90;;;;;;5033358;28;20364;-55
2022/10/18 11:35:25;;;;;;;;;;;28.40;99.90;;;;;;5033474;28;19904;-56
2022/10/18 11:37:58;;;;;;;;;;;28.50;99.90;;;;;;5033333;28;19916;-56
2022/10/18 11:40:34;;;;;;;;;;;28.50;99.90;;;;;;5033139;28;19915;-56
2022/10/18 11:43:11;;;;;;;;;;;28.50;99.90;;;;;;5031950;28;20280;-55
2022/10/18 11:45:40;;;;;;;;;;;28.50;99.90;;;;;;5033298;28;19905;-56
2022/10/18 11:48:08;;;;;;;;;;;28.60;99.90;;;;;;5033366;28;19905;-56
2022/10/18 11:50:46;;;;;;;;;;;28.60;99.90;;;;;;5033134;28;19905;-56
2022/10/18 11:53:27;;;;;;;;;;;28.80;99.90;;;;;;5033629;28;20267;-56
2022/10/18 11:56:10;;;;;;;;;;;28.80;99.90;;;;;;5033075;28;19956;-56
2022/10/18 11:58:55;;;;;;;;;;;29.00;99.90;;;;;;5030812;28;19935;-55
2022/10/18 12:01:23;;;;;;;;;;;29.10;99.90;;;;;;5022079;28;19917;-55
2022/10/18 12:04:09;;;;;;;;;;;29.20;99.90;;;;;;5030629;28;20365;-55
2022/10/18 12:06:36;;;;;;;;;;;29.20;99.90;;;;;;5028388;28;20343;-55
2022/10/18 12:09:07;;;;;;;;;;;29.40;99.90;;;;;;5030728;28;19904;-55
2022/10/18 12:11:40;;;;;;;;;;;29.40;99.90;;;;;;5030740;28;20220;-55
2022/10/18 12:14:32;;;;;;;;;;;29.40;99.90;;;;;;5030933;28;19905;-55
2022/10/18 12:17:01;;;;;;;;;;;29.50;99.90;;;;;;5028618;28;19952;-55
2022/10/18 12:19:28;;;;;;;;;;;29.50;99.90;;;;;;5030826;28;19944;-55
2022/10/18 12:21:55;;;;;;;;;;;29.60;99.90;;;;;;5030999;28;20262;-56
2022/10/18 12:24:26;;;;;;;;;;;29.60;99.90;;;;;;5030928;28;20335;-55
2022/10/18 12:26:56;;;;;;;;;;;29.60;99.90;;;;;;5030855;28;19905;-56
2022/10/18 12:29:24;;;;;;;;;;;29.60;99.90;;;;;;5030630;28;19944;-55
2022/10/18 12:31:55;;;;;;;;;;;29.70;99.90;;;;;;5023490;28;19917;-54
2022/10/18 12:34:21;;;;;;;;;;;29.70;99.90;;;;;;5026405;28;19909;-56
2022/10/18 12:37:04;;;;;;;;;;;29.60;99.90;;;;;;5030745;28;19912;-56
2022/10/18 12:39:36;;;;;;;;;;;29.60;99.90;;;;;;5030408;28;20288;-56
2022/10/18 12:42:02;;;;;;;;;;;29.60;99.90;;;;;;5026251;28;19964;-56
2022/10/18 12:44:29;;;;;;;;;;;29.60;99.90;;;;;;5020477;28;19906;-56
2022/10/18 12:46:57;;;;;;;;;;;29.60;99.90;;;;;;5031835;28;20354;-55
2022/10/18 12:49:28;;;;;;;;;;;29.60;99.90;;;;;;5032939;28;20364;-57
2022/10/18 12:51:58;;;;;;;;;;;29.60;99.90;;;;;;5030429;28;19999;-56
2022/10/18 12:54:28;;;;;;;;;;;29.60;99.90;;;;;;5015693;28;19905;-56
2022/10/18 12:56:54;;;;;;;;;;;29.60;99.90;;;;;;5023341;28;19992;-54
2022/10/18 12:59:25;;;;;;;;;;;29.70;99.90;;;;;;5021541;28;19996;-56
2022/10/18 13:01:53;;;;;;;;;;;29.70;99.90;;;;;;5022593;28;19952;-55
2022/10/18 13:04:27;;;;;;;;;;;29.70;99.90;;;;;;5022821;28;19970;-56
2022/10/18 13:06:56;;;;;;;;;;;29.80;99.90;;;;;;5023686;28;19916;-54
2022/10/18 13:09:22;;;;;;;;;;;29.80;99.90;;;;;;5027754;28;19905;-55
2022/10/18 13:11:48;;;;;;;;;;;29.80;99.90;;;;;;5019742;28;19909;-55
2022/10/18 13:14:19;;;;;;;;;;;29.80;99.90;;;;;;5011769;28;19905;-56
2022/10/18 13:16:45;;;;;;;;;;;29.80;99.90;;;;;;5012251;28;19967;-56
2022/10/18 13:19:28;;;;;;;;;;;29.80;99.90;;;;;;5012092;28;20336;-56
2022/10/18 13:22:13;;;;;;;;;;;29.80;99.90;;;;;;5021863;28;20348;-56
2022/10/18 13:24:42;;;;;;;;;;;29.80;99.90;;;;;;5029395;28;19913;-54
2022/10/18 13:27:26;;;;;;;;;;;29.90;99.90;;;;;;5026999;28;19912;-55
2022/10/18 13:29:52;;;;;;;;;;;29.90;99.90;;;;;;5037166;28;19963;-55
2022/10/18 13:32:35;;;;;;;;;;;29.90;99.90;;;;;;5025745;28;19921;-56
2022/10/18 13:35:01;;;;;;;;;;;29.90;99.90;;;;;;5028801;28;19905;-57
2022/10/18 13:37:28;;;;;;;;;;;29.90;99.90;;;;;;5029684;28;20071;-53
2022/10/18 13:40:13;;;;;;;;;;;30.00;99.90;;;;;;5021936;28;19913;-52
2022/10/18 13:42:38;;;;;;;;;;;30.00;99.90;;;;;;5024535;28;19909;-54
2022/10/18 13:45:24;;;;;;;;;;;30.10;99.90;;;;;;5027427;28;19905;-52
2022/10/18 13:47:50;;;;;;;;;;;30.10;99.90;;;;;;4999351;28;20430;-54
2022/10/18 13:50:45;;;;;;;;;;;30.10;99.90;;;;;;5021925;28;19905;-54
2022/10/18 13:53:23;;;;;;;;;;;30.10;99.90;;;;;;5023118;28;19999;-55
2022/10/18 13:56:04;;;;;;;;;;;30.10;99.90;;;;;;5020952;28;19916;-54
2022/10/18 13:58:30;;;;;;;;;;;30.10;99.90;;;;;;5013820;28;19919;-55
2022/10/18 14:01:10;;;;;;;;;;;30.10;99.90;;;;;;5021860;28;20289;-55
2022/10/18 14:03:51;;;;;;;;;;;30.10;99.90;;;;;;5024983;28;20001;-55
2022/10/18 14:06:21;;;;;;;;;;;30.10;99.90;;;;;;5023993;28;19909;-54
2022/10/18 14:08:51;;;;;;;;;;;30.00;99.90;;;;;;5025745;28;19998;-55
2022/10/18 14:11:29;;;;;;;;;;;30.10;99.90;;;;;;5023438;28;19913;-55
2022/10/18 14:13:59;;;;;;;;;;;30.00;99.90;;;;;;5028311;28;19909;-55
2022/10/18 14:16:33;;;;;;;;;;;30.00;99.90;;;;;;5028029;28;19916;-55
2022/10/18 14:19:19;;;;;;;;;;;30.10;99.90;;;;;;5030189;28;20277;-55
2022/10/18 14:21:49;;;;;;;;;;;30.10;99.90;;;;;;5025997;28;19932;-56
2022/10/18 14:24:21;;;;;;;;;;;30.10;99.90;;;;;;5022231;28;19991;-55
2022/10/18 14:26:46;;;;;;;;;;;30.10;99.90;;;;;;5021906;28;19912;-55